Time;durP1;ratioP1;P1;durP2;ratioP2;P2;SDS_P1;SDS_P2;PMS_P1;PMS_P2;Temp;Humidity;BMP_temperature;BMP_pressure;BME280_temperature;BME280_humidity;BME280_pressure;Samples;Min_cycle;Max_cycle;Signal;HPM_P1;HPM_P2
2021/01/24 00:00:55;;;;;;;62.95;28.90;;;;;;;0.86;74.04;97080.62;119893;1144;65161;-82
2021/01/24 00:03:22;;;;;;;56.57;26.70;;;;;;;0.83;73.83;97078.20;119916;1143;65044;-85
2021/01/24 00:05:49;;;;;;;55.60;25.50;;;;;;;0.75;73.74;97078.67;119931;1143;65169;-83
2021/01/24 00:08:16;;;;;;;46.27;23.20;;;;;;;0.74;74.53;97074.36;119882;1144;66276;-82
2021/01/24 00:10:42;;;;;;;45.70;23.20;;;;;;;0.74;73.56;97076.98;119892;1143;65088;-83
2021/01/24 00:13:09;;;;;;;45.90;23.80;;;;;;;0.71;74.11;97071.10;119881;1144;65427;-85
2021/01/24 00:15:35;;;;;;;51.17;25.50;;;;;;;0.72;74.39;97078.04;119862;1144;65132;-87
2021/01/24 00:18:02;;;;;;;50.70;24.33;;;;;;;0.69;74.40;97068.55;119888;1144;65064;-85
2021/01/24 00:20:29;;;;;;;44.17;23.43;;;;;;;0.66;74.44;97079.27;119882;1144;65165;-84
2021/01/24 00:22:55;;;;;;;48.43;23.20;;;;;;;0.67;73.75;97078.33;119864;1143;65066;-82
2021/01/24 00:25:21;;;;;;;47.57;21.37;;;;;;;0.70;73.58;97074.64;119878;1144;65054;-83
2021/01/24 00:27:48;;;;;;;36.15;20.90;;;;;;;0.72;74.04;97071.00;119894;1143;65076;-83
2021/01/24 00:30:15;;;;;;;43.23;22.80;;;;;;;0.76;74.17;97069.00;119896;1144;65104;-83
2021/01/24 00:32:42;;;;;;;42.05;24.65;;;;;;;0.80;74.35;97066.08;119876;1143;65039;-87
2021/01/24 00:35:10;;;;;;;43.47;24.43;;;;;;;0.83;74.04;97069.45;119893;1143;65155;-82
2021/01/24 00:37:37;;;;;;;41.77;24.73;;;;;;;0.81;74.11;97075.64;119920;1144;65108;-85
2021/01/24 00:40:06;;;;;;;40.10;23.30;;;;;;;0.81;74.00;97070.39;119919;1144;65097;-82
2021/01/24 00:42:33;;;;;;;41.13;23.23;;;;;;;0.80;73.74;97065.25;119910;1142;65049;-86
2021/01/24 00:45:00;;;;;;;34.20;21.30;;;;;;;0.73;74.21;97058.70;119892;1144;65134;-83
2021/01/24 00:47:27;;;;;;;31.83;19.67;;;;;;;0.74;74.73;97057.76;119894;1144;65103;-84
2021/01/24 00:49:53;;;;;;;30.50;18.87;;;;;;;0.81;74.37;97057.25;119872;1143;65025;-85
2021/01/24 00:52:20;;;;;;;30.45;19.95;;;;;;;0.87;74.12;97070.95;119908;1144;65114;-83
2021/01/24 00:54:47;;;;;;;29.90;18.97;;;;;;;0.89;74.64;97075.18;119868;1142;65060;-86
2021/01/24 00:57:13;;;;;;;33.30;19.53;;;;;;;0.90;74.34;97071.60;119899;1144;65108;-82
2021/01/24 00:59:40;;;;;;;34.17;20.43;;;;;;;0.90;74.07;97065.51;119910;1143;65162;-83
2021/01/24 01:02:06;;;;;;;35.97;19.53;;;;;;;0.89;74.18;97064.67;119864;1142;65155;-82
2021/01/24 01:04:32;;;;;;;42.23;24.00;;;;;;;0.87;74.37;97071.78;119951;1144;65108;-83
2021/01/24 01:06:59;;;;;;;36.30;21.37;;;;;;;0.86;73.76;97071.89;119848;1144;65057;-88
2021/01/24 01:09:26;;;;;;;35.00;19.83;;;;;;;0.88;73.79;97073.47;119888;1144;65149;-83
2021/01/24 01:11:52;;;;;;;37.03;22.17;;;;;;;0.92;73.67;97074.97;119876;1144;65059;-88
2021/01/24 01:14:18;;;;;;;54.67;30.47;;;;;;;0.96;74.18;97072.99;119868;1144;65176;-82
2021/01/24 01:16:45;;;;;;;59.63;33.53;;;;;;;1.00;74.34;97066.58;119884;1144;65598;-83
2021/01/24 01:19:11;;;;;;;66.40;34.27;;;;;;;1.01;73.81;97069.09;119876;1143;65249;-87
2021/01/24 01:21:37;;;;;;;64.10;35.37;;;;;;;1.01;74.66;97065.63;119825;1144;65130;-84
2021/01/24 01:24:04;;;;;;;60.70;33.23;;;;;;;0.99;74.52;97068.36;119905;1144;65169;-82
2021/01/24 01:26:31;;;;;;;56.20;30.83;;;;;;;0.99;74.25;97070.16;119901;1144;65092;-83
2021/01/24 01:28:57;;;;;;;54.33;29.70;;;;;;;0.99;74.09;97065.73;119941;1144;65113;-83
2021/01/24 01:31:24;;;;;;;50.73;28.67;;;;;;;1.00;74.60;97056.91;119954;1143;65074;-84
2021/01/24 01:33:50;;;;;;;47.80;26.00;;;;;;;1.05;74.77;97056.61;119850;1144;65228;-84
2021/01/24 01:36:16;;;;;;;51.77;27.03;;;;;;;1.08;74.11;97044.13;119880;1143;65175;-82
2021/01/24 01:38:43;;;;;;;55.45;31.00;;;;;;;1.07;74.42;97050.30;119905;1143;65193;-83
2021/01/24 01:41:09;;;;;;;54.98;30.57;;;;;;;1.10;74.70;97045.80;119890;1143;65059;-86
2021/01/24 01:43:36;;;;;;;62.77;31.50;;;;;;;1.10;74.34;97053.69;119905;1144;65050;-86
2021/01/24 01:46:03;;;;;;;51.03;28.53;;;;;;;1.07;74.34;97047.67;119856;1144;65092;-84
2021/01/24 01:48:32;;;;;;;52.83;28.27;;;;;;;1.06;74.03;97039.89;119898;1143;65114;-85
2021/01/24 01:50:58;;;;;;;57.40;30.10;;;;;;;1.05;75.03;97044.30;119933;1144;65012;-83
2021/01/24 01:53:26;;;;;;;58.65;30.45;;;;;;;1.09;74.59;97042.33;119893;1143;65157;-84
2021/01/24 01:55:52;;;;;;;53.13;28.57;;;;;;;1.11;74.11;97043.06;119902;1144;65589;-85
2021/01/24 01:58:19;;;;;;;46.67;25.50;;;;;;;1.11;74.61;97044.85;119926;1143;65262;-82
2021/01/24 02:00:49;;;;;;;60.80;27.55;;;;;;;1.13;74.86;97035.91;119912;1144;65101;-84
2021/01/24 02:03:34;;;;;;;59.57;29.10;;;;;;;1.14;74.90;97040.22;119955;1143;65089;-85
2021/01/24 02:06:12;;;;;;;56.73;27.87;;;;;;;1.12;74.32;97036.86;119894;1144;65089;-83
2021/01/24 02:08:52;;;;;;;63.97;28.17;;;;;;;1.06;74.13;97035.47;119856;1142;65008;-84
2021/01/24 02:11:38;;;;;;;53.03;25.97;;;;;;;1.01;74.94;97037.55;119890;1144;65305;-85
2021/01/24 02:14:08;;;;;;;;;;;;;;;0.95;74.38;97037.12;119907;1143;65181;-83
2021/01/24 02:16:38;;;;;;;54.40;23.65;;;;;;;0.90;74.68;97033.97;119881;1143;65074;-84
2021/01/24 02:19:06;;;;;;;49.13;21.87;;;;;;;0.87;74.27;97039.41;119961;1144;65172;-84
2021/01/24 02:21:36;;;;;;;46.65;19.65;;;;;;;0.88;74.30;97039.30;119967;1143;65156;-84
2021/01/24 02:24:06;;;;;;;39.55;19.75;;;;;;;0.91;75.13;97047.00;119910;1144;65181;-85
2021/01/24 02:26:59;;;;;;;45.60;21.40;;;;;;;0.95;74.65;97037.95;119942;1143;65111;-83
2021/01/24 02:30:13;;;;;;;41.27;20.87;;;;;;;0.97;75.07;97033.47;119885;1143;65083;-85
2021/01/24 02:32:40;;;;;;;39.23;19.33;;;;;;;0.99;75.00;97028.94;119781;1147;65273;-87
2021/01/24 02:35:07;;;;;;;39.67;18.93;;;;;;;0.99;74.95;97028.09;119800;1146;65152;-82
2021/01/24 02:37:34;;;;;;;33.60;17.63;;;;;;;0.97;74.28;97024.73;119749;1146;65085;-84
2021/01/24 02:40:02;;;;;;;35.10;17.43;;;;;;;0.95;74.58;97030.07;119827;1146;65092;-83
2021/01/24 02:42:31;;;;;;;29.43;16.27;;;;;;;1.00;74.75;97035.03;119765;1147;65220;-87
2021/01/24 02:44:58;;;;;;;28.07;16.50;;;;;;;1.01;74.71;97034.09;119870;1146;65059;-83
2021/01/24 02:47:27;;;;;;;31.37;17.33;;;;;;;1.04;74.52;97031.27;119788;1147;65172;-85
2021/01/24 02:49:54;;;;;;;32.15;17.35;;;;;;;1.10;74.89;97014.26;119780;1148;65171;-84
2021/01/24 02:52:22;;;;;;;36.20;18.23;;;;;;;1.07;75.24;97025.80;119811;1146;65159;-84
2021/01/24 02:54:48;;;;;;;44.70;21.60;;;;;;;1.03;75.00;97024.34;119827;1146;65143;-85
2021/01/24 02:57:15;;;;;;;36.20;19.13;;;;;;;0.92;74.87;97024.19;119787;1147;65132;-84
2021/01/24 02:59:42;;;;;;;35.90;18.63;;;;;;;0.86;74.71;97016.71;119749;1146;65193;-85
2021/01/24 03:02:08;;;;;;;34.85;17.40;;;;;;;0.81;74.75;97020.47;119735;1147;65213;-87
2021/01/24 03:04:34;;;;;;;39.73;18.07;;;;;;;0.84;75.02;97016.81;119854;1143;65078;-85
2021/01/24 03:07:01;;;;;;;34.83;16.10;;;;;;;0.87;75.01;97024.48;119887;1142;65062;-86
2021/01/24 03:09:28;;;;;;;38.87;19.10;;;;;;;0.86;74.94;97014.92;119863;1143;65030;-87
2021/01/24 03:11:58;;;;;;;36.13;18.95;;;;;;;0.85;74.29;97015.87;119940;1144;65079;-83
2021/01/24 03:14:27;;;;;;;44.23;21.17;;;;;;;0.83;75.19;97011.64;119892;1143;65140;-85
2021/01/24 03:16:57;;;;;;;46.90;21.37;;;;;;;0.80;74.94;97013.53;119863;1144;65117;-85
2021/01/24 03:19:26;;;;;;;42.53;20.03;;;;;;;0.81;74.37;97015.22;119914;1143;65118;-83
2021/01/24 03:21:53;;;;;;;38.85;19.45;;;;;;;0.80;74.92;97018.79;119895;1141;65092;-86
2021/01/24 03:24:21;;;;;;;39.63;18.23;;;;;;;0.76;74.72;97011.20;119899;1143;65063;-84
2021/01/24 03:26:49;;;;;;;37.63;18.43;;;;;;;0.73;75.16;97007.00;119884;1144;65297;-86
2021/01/24 03:29:15;;;;;;;36.25;17.90;;;;;;;0.74;74.94;97008.68;119946;1144;65040;-84
2021/01/24 03:31:43;;;;;;;36.77;19.00;;;;;;;0.77;74.73;97010.28;119886;1144;65331;-83
2021/01/24 03:34:20;;;;;;;40.40;19.83;;;;;;;0.77;75.06;97011.13;119940;1142;65082;-83
2021/01/24 03:36:49;;;;;;;41.67;20.20;;;;;;;0.74;74.68;97013.94;119892;1144;65111;-85
2021/01/24 03:39:15;;;;;;;42.03;19.93;;;;;;;0.71;75.15;97014.15;119899;1143;65060;-83
2021/01/24 03:41:44;;;;;;;36.43;18.63;;;;;;;0.68;75.38;97014.33;119914;1144;65072;-83
2021/01/24 03:44:10;;;;;;;37.60;19.40;;;;;;;0.70;75.55;97008.97;119895;1144;65066;-84
2021/01/24 03:46:37;;;;;;;38.43;18.50;;;;;;;0.74;74.86;97011.30;119887;1144;65197;-85
2021/01/24 03:49:08;;;;;;;35.87;18.70;;;;;;;0.81;75.61;97017.00;119894;1144;65068;-84
2021/01/24 03:51:35;;;;;;;30.40;16.20;;;;;;;0.88;74.97;97017.44;119935;1144;65171;-84
2021/01/24 03:54:01;;;;;;;31.77;17.87;;;;;;;0.93;75.56;97023.24;119927;1144;65085;-84
2021/01/24 03:56:28;;;;;;;42.67;18.33;;;;;;;0.97;75.40;97024.73;119869;1143;65015;-85
2021/01/24 03:58:54;;;;;;;36.47;18.50;;;;;;;0.98;75.08;97022.00;119842;1144;65147;-85
2021/01/24 04:01:20;;;;;;;32.87;17.47;;;;;;;0.96;75.23;97020.44;119907;1143;65075;-86
2021/01/24 04:03:47;;;;;;;34.13;17.70;;;;;;;0.98;75.18;97022.00;119893;1143;65149;-84
2021/01/24 04:06:13;;;;;;;30.03;15.80;;;;;;;0.98;75.06;97021.16;119923;1144;65079;-84
2021/01/24 04:08:39;;;;;;;30.20;15.97;;;;;;;0.96;75.40;97015.17;119906;1144;65079;-85
2021/01/24 04:11:06;;;;;;;27.17;14.90;;;;;;;1.01;75.34;97020.95;119908;1143;65466;-86
2021/01/24 04:13:32;;;;;;;22.10;12.63;;;;;;;1.03;75.33;97024.34;119906;1141;65076;-83
2021/01/24 04:15:59;;;;;;;21.82;13.35;;;;;;;1.03;75.14;97016.45;119906;1144;65154;-86
2021/01/24 04:18:25;;;;;;;22.70;13.97;;;;;;;1.05;75.19;97017.18;119875;1144;65072;-84
2021/01/24 04:20:51;;;;;;;24.10;13.93;;;;;;;1.05;75.37;97017.18;119968;1144;65239;-83
2021/01/24 04:23:18;;;;;;;27.93;15.43;;;;;;;1.00;75.14;97014.84;119866;1144;65095;-86
2021/01/24 04:25:44;;;;;;;26.97;15.15;;;;;;;0.96;75.61;97017.80;119830;1144;65135;-87
2021/01/24 04:28:10;;;;;;;26.53;14.93;;;;;;;0.96;75.44;97017.80;119903;1143;65107;-86
2021/01/24 04:30:37;;;;;;;24.00;13.75;;;;;;;0.96;74.95;97008.13;119920;1144;65037;-86
2021/01/24 04:33:06;;;;;;;24.50;13.13;;;;;;;1.02;75.93;97009.52;119893;1144;65146;-86
2021/01/24 04:35:33;;;;;;;26.45;14.05;;;;;;;1.05;75.55;97002.25;119935;1144;65101;-85
2021/01/24 04:38:00;;;;;;;24.97;14.90;;;;;;;1.06;75.38;97003.92;119866;1143;65082;-84
2021/01/24 04:40:27;;;;;;;26.47;14.17;;;;;;;1.05;75.60;96996.99;119740;1144;65242;-83
2021/01/24 04:42:55;;;;;;;26.70;15.03;;;;;;;1.07;74.96;96994.25;119749;1144;65063;-83
2021/01/24 04:45:21;;;;;;;25.63;15.27;;;;;;;1.07;75.71;96989.84;119764;1144;65105;-86
2021/01/24 04:47:48;;;;;;;24.87;15.47;;;;;;;1.05;74.70;96998.78;119828;1144;65101;-85
2021/01/24 04:50:17;;;;;;;25.33;14.90;;;;;;;0.99;75.46;96993.93;119817;1143;65097;-83
2021/01/24 04:52:46;;;;;;;31.97;17.30;;;;;;;0.95;75.29;96985.39;119807;1144;65219;-84
2021/01/24 04:55:14;;;;;;;37.37;18.87;;;;;;;0.95;75.12;96987.19;119834;1143;65056;-87
2021/01/24 04:57:43;;;;;;;28.33;16.03;;;;;;;0.93;74.65;96979.41;119881;1142;65088;-85
2021/01/24 05:00:11;;;;;;;31.00;18.95;;;;;;;0.92;74.94;96980.36;119823;1144;65171;-87
2021/01/24 05:02:39;;;;;;;33.20;17.70;;;;;;;0.90;74.99;96969.11;119911;1143;64977;-86
2021/01/24 05:05:05;;;;;;;32.57;18.23;;;;;;;0.88;75.25;96983.28;119880;1144;65137;-82
2021/01/24 05:07:36;;;;;;;34.80;18.53;;;;;;;0.85;75.77;96970.36;119802;1143;65120;-87
2021/01/24 05:10:04;;;;;;;37.20;19.27;;;;;;;0.82;74.79;96971.39;119895;1144;65188;-84
2021/01/24 05:12:31;;;;;;;31.93;16.50;;;;;;;0.79;75.29;96961.09;119931;1142;65089;-84
2021/01/24 05:14:58;;;;;;;33.03;17.77;;;;;;;0.77;74.84;96960.36;119927;1144;65066;-84
2021/01/24 05:17:25;;;;;;;35.60;17.73;;;;;;;0.77;74.90;96955.95;119868;1143;65251;-84
2021/01/24 05:19:53;;;;;;;35.10;18.20;;;;;;;0.80;75.44;96949.64;119900;1144;65151;-88
2021/01/24 05:22:19;;;;;;;46.83;19.47;;;;;;;0.81;75.11;96949.53;119906;1143;65111;-84
2021/01/24 05:24:46;;;;;;;39.83;20.07;;;;;;;0.82;75.54;96947.73;119932;1144;65062;-88
2021/01/24 05:27:13;;;;;;;55.80;20.37;;;;;;;0.80;75.24;96947.01;119896;1144;65488;-84
2021/01/24 05:29:42;;;;;;;43.70;21.27;;;;;;;0.79;75.57;96958.47;119876;1143;65235;-85
2021/01/24 05:32:11;;;;;;;44.43;20.40;;;;;;;0.80;76.03;96947.84;119935;1144;65156;-86
2021/01/24 05:34:38;;;;;;;55.67;23.20;;;;;;;0.84;75.79;96940.62;119917;1144;65159;-85
2021/01/24 05:37:04;;;;;;;42.90;19.23;;;;;;;0.89;75.55;96948.17;119909;1144;65178;-83
2021/01/24 05:39:32;;;;;;;37.50;17.77;;;;;;;0.89;75.40;96946.41;119896;1144;65180;-87
2021/01/24 05:42:00;;;;;;;45.33;19.17;;;;;;;0.93;75.65;96949.66;119902;1144;65198;-83
2021/01/24 05:44:27;;;;;;;53.93;20.43;;;;;;;0.97;75.54;96945.89;119903;1144;65069;-82
2021/01/24 05:47:03;;;;;;;42.97;20.20;;;;;;;1.03;75.35;96956.00;119877;1143;65175;-87
2021/01/24 05:49:32;;;;;;;54.90;21.57;;;;;;;1.02;75.64;96955.16;119956;1144;65107;-85
2021/01/24 05:52:06;;;;;;;49.47;19.07;;;;;;;1.00;75.85;96953.56;119872;1144;65156;-85
2021/01/24 05:54:46;;;;;;;53.67;21.23;;;;;;;0.97;76.11;96951.15;119873;1144;65411;-86
2021/01/24 05:57:15;;;;;;;47.47;21.80;;;;;;;0.93;75.29;96955.76;119899;1144;65072;-87
2021/01/24 06:00:00;;;;;;;51.17;21.97;;;;;;;0.96;75.86;96962.61;119945;1143;65172;-84
2021/01/24 06:02:29;;;;;;;54.40;23.53;;;;;;;1.03;76.02;96963.88;119979;1143;65059;-82
2021/01/24 06:04:55;;;;;;;51.30;21.50;;;;;;;1.09;76.18;96966.10;119918;1143;65047;-85
2021/01/24 06:07:23;;;;;;;48.10;21.50;;;;;;;1.17;76.17;96974.30;119954;1144;65598;-85
2021/01/24 06:09:50;;;;;;;48.90;21.30;;;;;;;1.21;76.25;96965.28;119856;1144;65079;-87
2021/01/24 06:12:23;;;;;;;53.03;22.47;;;;;;;1.24;75.84;96966.84;119860;1144;65089;-84
2021/01/24 06:14:50;;;;;;;54.43;20.87;;;;;;;1.20;75.14;96968.83;119953;1143;65089;-82
2021/01/24 06:17:36;;;;;;;54.20;21.53;;;;;;;1.13;75.53;96969.34;119922;1143;65050;-87
2021/01/24 06:20:05;;;;;;;36.60;18.80;;;;;;;1.06;75.53;96971.55;119855;1142;65092;-84
2021/01/24 06:22:41;;;;;;;39.83;18.97;;;;;;;1.06;75.44;96968.92;119936;1143;65178;-84
2021/01/24 06:25:16;;;;;;;41.37;19.10;;;;;;;1.07;76.10;96962.71;119910;1144;65092;-83
2021/01/24 06:27:49;;;;;;;37.67;17.97;;;;;;;1.09;75.70;96976.61;119879;1144;65937;-86
2021/01/24 06:30:17;;;;;;;43.93;19.60;;;;;;;1.08;75.80;96980.16;119923;1143;65142;-83
2021/01/24 06:32:43;;;;;;;37.70;19.73;;;;;;;1.06;76.02;96974.17;119910;1143;65062;-84
2021/01/24 06:35:17;;;;;;;46.70;20.87;;;;;;;1.04;75.78;96973.45;119887;1144;65101;-85
2021/01/24 06:37:51;;;;;;;53.15;23.10;;;;;;;1.01;75.90;96971.00;119916;1144;65065;-83
2021/01/24 06:40:27;;;;;;;45.50;23.57;;;;;;;0.99;75.96;96971.12;119852;1144;65107;-83
2021/01/24 06:42:59;;;;;;;55.70;20.60;;;;;;;0.96;75.96;96976.59;119910;1143;65068;-88
2021/01/24 06:45:25;;;;;;;45.47;19.70;;;;;;;0.92;75.63;96977.73;119865;1144;65140;-82
2021/01/24 06:47:56;;;;;;;44.50;20.35;;;;;;;0.89;75.80;96979.70;119944;1143;65094;-83
2021/01/24 06:50:48;;;;;;;35.07;18.93;;;;;;;0.91;75.62;96990.98;119890;1144;65111;-86
2021/01/24 06:53:18;;;;;;;34.35;18.45;;;;;;;0.97;76.22;96985.31;119904;1142;65095;-82
2021/01/24 06:55:58;;;;;;;39.50;19.93;;;;;;;1.01;76.28;96986.78;119893;1144;65185;-84
2021/01/24 06:58:31;;;;;;;37.67;18.83;;;;;;;1.04;76.26;96987.43;119889;1143;65161;-83
2021/01/24 07:01:21;;;;;;;42.45;19.20;;;;;;;1.01;75.60;96992.03;119921;1143;65490;-84
2021/01/24 07:04:25;;;;;;;33.97;17.33;;;;;;;0.95;76.10;96989.81;119885;1144;65557;-83
2021/01/24 07:06:54;;;;;;;35.77;18.13;;;;;;;0.91;75.63;96993.61;119926;1143;65089;-84
2021/01/24 07:09:24;;;;;;;34.00;17.95;;;;;;;0.90;75.94;96997.19;119907;1144;65062;-84
2021/01/24 07:11:52;;;;;;;31.57;16.43;;;;;;;0.96;76.14;96994.15;119880;1143;65175;-87
2021/01/24 07:14:34;;;;;;;34.40;18.23;;;;;;;1.00;76.27;97001.70;119881;1144;65066;-85
2021/01/24 07:17:07;;;;;;;31.80;17.57;;;;;;;1.07;76.06;96992.47;119916;1144;65150;-87
2021/01/24 07:19:45;;;;;;;32.80;18.07;;;;;;;1.16;76.58;96992.81;119919;1144;65091;-88
2021/01/24 07:22:13;;;;;;;35.20;18.83;;;;;;;1.22;76.33;96987.98;119882;1144;65180;-87
2021/01/24 07:24:42;;;;;;;36.70;19.47;;;;;;;1.26;76.45;96981.55;119878;1143;65136;-83
2021/01/24 07:27:14;;;;;;;37.07;19.73;;;;;;;1.30;76.25;96977.78;120039;1143;65014;-83
2021/01/24 07:29:41;;;;;;;31.00;16.70;;;;;;;1.29;75.99;96970.84;120145;1143;65175;-83
2021/01/24 07:32:11;;;;;;;30.67;18.30;;;;;;;1.34;76.48;96976.64;120156;1143;65148;-85
2021/01/24 07:34:38;;;;;;;28.65;16.05;;;;;;;1.35;75.71;96975.69;120087;1144;65140;-84
2021/01/24 07:37:06;;;;;;;32.50;18.60;;;;;;;1.38;75.77;96984.30;120099;1144;65232;-84
2021/01/24 07:39:34;;;;;;;39.30;19.07;;;;;;;1.42;76.10;96981.38;120022;1144;65212;-88
2021/01/24 07:42:02;;;;;;;35.67;17.33;;;;;;;1.44;75.79;96983.89;120008;1143;65079;-81
2021/01/24 07:44:28;;;;;;;30.57;16.70;;;;;;;1.46;76.01;96976.73;119997;1144;65483;-83
2021/01/24 07:46:55;;;;;;;27.80;16.07;;;;;;;1.54;76.36;96977.06;120091;1144;65129;-83
2021/01/24 07:49:23;;;;;;;32.43;17.17;;;;;;;1.61;76.16;96970.43;120017;1144;65178;-87
2021/01/24 07:51:51;;;;;;;34.03;18.53;;;;;;;1.69;76.02;96975.15;120064;1144;65143;-88
2021/01/24 07:54:18;;;;;;;40.70;21.20;;;;;;;1.71;75.79;96973.25;119871;1144;65101;-83
2021/01/24 07:56:45;;;;;;;49.73;23.97;;;;;;;1.73;75.56;96971.38;119949;1143;65092;-84
2021/01/24 07:59:12;;;;;;;57.60;25.53;;;;;;;1.74;75.81;96973.89;119913;1143;65075;-82
2021/01/24 08:01:39;;;;;;;59.10;25.67;;;;;;;1.75;75.92;96970.30;119869;1144;65191;-86
2021/01/24 08:04:06;;;;;;;57.77;25.30;;;;;;;1.75;75.87;96965.04;119863;1143;65077;-83
2021/01/24 08:06:34;;;;;;;57.37;25.10;;;;;;;1.74;75.63;96981.78;119878;1143;65187;-85
2021/01/24 08:09:01;;;;;;;29.97;17.40;;;;;;;1.76;75.43;96973.77;119895;1143;65094;-87
2021/01/24 08:11:31;;;;;;;30.87;17.70;;;;;;;1.73;75.64;96964.31;119892;1144;65096;-85
2021/01/24 08:13:58;;;;;;;35.57;20.03;;;;;;;1.73;75.58;96966.95;119863;1143;65665;-83
2021/01/24 08:16:34;;;;;;;35.80;19.60;;;;;;;1.77;76.00;96963.12;119865;1143;65257;-84
2021/01/24 08:19:03;;;;;;;28.53;17.63;;;;;;;1.80;75.71;96967.36;119876;1144;65085;-85
2021/01/24 08:21:32;;;;;;;32.33;17.73;;;;;;;1.82;75.55;96966.29;119888;1143;65052;-87
2021/01/24 08:23:59;;;;;;;37.53;20.50;;;;;;;1.87;75.56;96969.45;119910;1143;65112;-87
2021/01/24 08:26:25;;;;;;;31.00;17.97;;;;;;;1.93;75.54;96968.17;119891;1144;65288;-83
2021/01/24 08:28:52;;;;;;;38.47;17.90;;;;;;;1.98;75.97;96971.33;119891;1143;65095;-84
2021/01/24 08:31:20;;;;;;;28.77;15.60;;;;;;;2.06;75.67;96962.88;119920;1144;65101;-85
2021/01/24 08:33:54;;;;;;;29.20;16.10;;;;;;;2.11;75.36;96958.14;119937;1143;65196;-86
2021/01/24 08:36:23;;;;;;;34.08;18.32;;;;;;;2.14;75.68;96971.91;119881;1144;65028;-83
2021/01/24 08:38:56;;;;;;;36.00;20.23;;;;;;;2.17;75.66;96981.40;119986;1144;65157;-84
2021/01/24 08:41:37;;;;;;;35.80;20.15;;;;;;;2.18;75.89;96977.81;120079;1142;65082;-84
2021/01/24 08:44:15;;;;;;;49.10;23.90;;;;;;;2.22;75.88;96981.05;120049;1144;65059;-83
2021/01/24 08:46:44;;;;;;;49.30;25.70;;;;;;;2.21;75.72;96977.58;119990;1143;65111;-84
2021/01/24 08:49:12;;;;;;;45.77;25.33;;;;;;;2.22;75.68;96978.41;119910;1144;65632;-84
2021/01/24 08:51:50;;;;;;;45.45;22.95;;;;;;;2.18;75.53;96977.81;119921;1143;65242;-87
2021/01/24 08:54:25;;;;;;;41.53;24.13;;;;;;;2.18;75.63;96983.08;119876;1143;65120;-83
2021/01/24 08:57:05;;;;;;;44.03;23.62;;;;;;;2.20;76.03;96982.95;119950;1142;65108;-84
2021/01/24 08:59:33;;;;;;;40.40;21.10;;;;;;;2.25;75.79;96978.21;120366;1144;64875;-85
2021/01/24 09:02:00;;;;;;;47.00;25.97;;;;;;;2.30;75.59;96979.56;119847;1143;65082;-84
2021/01/24 09:04:35;;;;;;;45.70;25.85;;;;;;;2.34;76.00;96981.01;119883;1144;65161;-82
2021/01/24 09:07:05;;;;;;;70.10;31.17;;;;;;;2.39;76.16;96986.80;119875;1144;65088;-87
2021/01/24 09:09:33;;;;;;;64.25;29.90;;;;;;;2.41;75.77;96984.04;119917;1143;65183;-83
2021/01/24 09:12:01;;;;;;;63.87;31.50;;;;;;;2.44;75.94;96979.41;119930;1144;65073;-82
2021/01/24 09:14:28;;;;;;;55.17;29.50;;;;;;;2.53;75.74;96974.41;119915;1143;65086;-83
2021/01/24 09:17:06;;;;;;;62.93;31.47;;;;;;;2.61;75.57;96975.55;119909;1144;65232;-84
2021/01/24 09:19:35;;;;;;;65.10;31.53;;;;;;;2.72;75.72;96977.38;119916;1144;65122;-87
2021/01/24 09:22:02;;;;;;;56.33;28.47;;;;;;;2.81;75.74;96979.36;119903;1144;65148;-82
2021/01/24 09:24:28;;;;;;;62.33;30.03;;;;;;;2.95;75.56;96980.97;119867;1144;65084;-87
2021/01/24 09:26:55;;;;;;;50.97;27.67;;;;;;;3.14;75.87;96976.00;119937;1144;65057;-83
2021/01/24 09:29:22;;;;;;;57.83;27.23;;;;;;;3.31;75.77;96966.82;119849;1144;65178;-84
2021/01/24 09:31:49;;;;;;;46.13;25.37;;;;;;;3.56;75.25;96962.28;119881;1144;65069;-85
2021/01/24 09:34:15;;;;;;;54.20;27.70;;;;;;;3.83;75.17;96965.44;119887;1144;65108;-86
2021/01/24 09:36:42;;;;;;;60.50;30.33;;;;;;;4.03;74.98;96955.94;119898;1144;65091;-83
2021/01/24 09:39:09;;;;;;;53.50;28.40;;;;;;;4.12;74.65;96955.20;119900;1144;65088;-85
2021/01/24 09:41:36;;;;;;;54.43;29.70;;;;;;;4.24;74.68;96954.23;119874;1144;65181;-83
2021/01/24 09:44:03;;;;;;;53.00;29.35;;;;;;;4.38;75.15;96949.63;119933;1144;65070;-84
2021/01/24 09:46:30;;;;;;;52.83;28.30;;;;;;;4.52;75.22;96952.86;119898;1144;65146;-85
2021/01/24 09:48:56;;;;;;;55.27;30.20;;;;;;;4.66;75.50;96948.25;119911;1143;65177;-84
2021/01/24 09:51:24;;;;;;;51.77;28.57;;;;;;;4.82;74.86;96951.30;119934;1144;65006;-83
2021/01/24 09:53:52;;;;;;;55.45;30.20;;;;;;;4.73;73.92;96949.42;119896;1143;65679;-88
2021/01/24 09:56:20;;;;;;;55.17;28.10;;;;;;;4.56;74.75;96948.15;119940;1143;64996;-85
2021/01/24 09:58:46;;;;;;;53.30;28.40;;;;;;;4.59;74.56;96950.56;119894;1143;65094;-82
2021/01/24 10:01:14;;;;;;;50.77;26.73;;;;;;;4.62;74.70;96952.94;119921;1144;65085;-87
2021/01/24 10:03:40;;;;;;;46.83;25.30;;;;;;;4.64;74.94;96947.52;119853;1144;65081;-84
2021/01/24 10:06:07;;;;;;;45.07;24.60;;;;;;;4.72;75.12;96945.11;119940;1144;65265;-84
2021/01/24 10:08:33;;;;;;;46.40;26.50;;;;;;;4.89;74.43;96934.80;119896;1144;65568;-87
2021/01/24 10:11:00;;;;;;;51.40;27.23;;;;;;;5.26;74.55;96936.19;119897;1143;65017;-82
2021/01/24 10:13:27;;;;;;;59.07;30.23;;;;;;;5.30;74.62;96933.16;119931;1144;65101;-84
2021/01/24 10:15:54;;;;;;;54.13;29.73;;;;;;;5.38;74.69;96935.15;119862;1144;65082;-86
2021/01/24 10:18:22;;;;;;;51.67;29.77;;;;;;;5.43;74.54;96932.95;119889;1144;65191;-84
2021/01/24 10:20:49;;;;;;;47.55;28.85;;;;;;;5.51;74.33;96927.84;119919;1144;65138;-86
2021/01/24 10:23:20;;;;;;;49.97;27.57;;;;;;;5.54;74.74;96932.89;119912;1145;65052;-83
2021/01/24 10:25:48;;;;;;;48.43;27.33;;;;;;;5.46;74.43;96927.39;119894;1144;64985;-83
2021/01/24 10:28:14;;;;;;;53.47;28.03;;;;;;;5.47;74.22;96926.44;119966;1144;65718;-87
2021/01/24 10:30:41;;;;;;;48.37;27.43;;;;;;;5.63;74.61;96921.49;119960;1144;65185;-84
2021/01/24 10:33:07;;;;;;;57.50;30.80;;;;;;;5.63;74.68;96924.14;119911;1144;66565;-83
2021/01/24 10:35:34;;;;;;;62.35;33.30;;;;;;;5.68;74.33;96915.81;119863;1144;65131;-85
2021/01/24 10:38:00;;;;;;;51.60;28.65;;;;;;;5.55;73.75;96913.38;119935;1144;65078;-83
2021/01/24 10:40:27;;;;;;;51.05;28.32;;;;;;;5.44;74.69;96916.09;119938;1144;65185;-82
2021/01/24 10:42:53;;;;;;;56.27;29.50;;;;;;;5.30;74.71;96917.28;119868;1143;65095;-87
2021/01/24 10:45:20;;;;;;;49.63;27.00;;;;;;;5.17;74.13;96910.51;119828;1144;65082;-84
2021/01/24 10:47:46;;;;;;;45.10;26.45;;;;;;;5.16;74.40;96914.97;119943;1144;65015;-82
2021/01/24 10:50:14;;;;;;;49.45;26.40;;;;;;;5.32;75.46;96912.69;119764;1143;65095;-87
2021/01/24 10:52:40;;;;;;;47.97;26.83;;;;;;;5.52;75.38;96912.79;119833;1144;64993;-86
2021/01/24 10:55:08;;;;;;;47.75;26.90;;;;;;;5.77;75.11;96917.65;119900;1144;65151;-82
2021/01/24 10:57:35;;;;;;;49.20;27.67;;;;;;;5.85;75.00;96924.92;119873;1144;65114;-88
2021/01/24 11:00:03;;;;;;;45.17;27.43;;;;;;;5.95;75.01;96928.50;119898;1142;65117;-83
2021/01/24 11:02:30;;;;;;;52.97;29.87;;;;;;;5.98;74.69;96933.55;119907;1144;65058;-87
2021/01/24 11:04:57;;;;;;;49.50;28.07;;;;;;;5.97;74.14;96937.14;119837;1142;65180;-83
2021/01/24 11:07:24;;;;;;;46.17;27.33;;;;;;;5.99;74.28;96942.33;119809;1144;65098;-87
2021/01/24 11:09:50;;;;;;;52.20;28.50;;;;;;;5.93;73.82;96936.58;119713;1144;65173;-83
2021/01/24 11:12:17;;;;;;;53.07;28.97;;;;;;;5.76;73.46;96936.33;119870;1144;65191;-84
2021/01/24 11:14:43;;;;;;;53.25;29.45;;;;;;;5.67;74.65;96928.21;119844;1144;65059;-83
2021/01/24 11:17:10;;;;;;;48.83;24.33;;;;;;;5.51;73.43;96933.13;119853;1143;65133;-87
2021/01/24 11:19:37;;;;;;;30.57;16.47;;;;;;;5.22;73.39;96929.49;119869;1143;65251;-83
2021/01/24 11:22:04;;;;;;;19.27;10.63;;;;;;;4.84;72.85;96936.17;119909;1144;65005;-85
2021/01/24 11:24:31;;;;;;;14.60;9.03;;;;;;;4.60;73.04;96936.37;119948;1144;65086;-87